Time;durP1;ratioP1;P1;durP2;ratioP2;P2;SDS_P1;SDS_P2;PMS_P1;PMS_P2;Temp;Humidity;BMP_temperature;BMP_pressure;BME280_temperature;BME280_humidity;BME280_pressure;Samples;Min_cycle;Max_cycle;Signal;HPM_P1;HPM_P2
2022/07/22 00:03:55;;;;;;;2.47;1.27;;;;;;;20.78;70.71;100991.38;9909008;30;20281;-80
2022/07/22 00:08:57;;;;;;;1.88;1.58;;;;;;;20.56;72.47;100996.69;9909448;30;20233;-82
2022/07/22 00:14:01;;;;;;;2.85;1.40;;;;;;;21.23;68.94;100995.28;9907205;30;20651;-80
2022/07/22 00:19:03;;;;;;;1.45;1.35;;;;;;;21.27;69.43;100984.84;9894085;30;20253;-80
2022/07/22 00:24:05;;;;;;;2.03;1.85;;;;;;;21.60;67.99;100985.47;9895384;30;20364;-82
2022/07/22 00:29:07;;;;;;;2.27;1.67;;;;;;;21.70;66.69;100990.63;9887995;29;20229;-82
2022/07/22 00:34:10;;;;;;;3.83;1.63;;;;;;;21.92;65.90;100989.25;9865251;30;20261;-81
2022/07/22 00:39:12;;;;;;;3.40;1.83;;;;;;;21.61;66.59;100994.81;9878123;30;20237;-82
2022/07/22 00:44:15;;;;;;;1.83;1.57;;;;;;;21.65;66.26;100985.22;9893970;29;20246;-81
2022/07/22 00:49:17;;;;;;;2.97;1.52;;;;;;;21.71;66.98;100989.44;9906937;30;20209;-82
2022/07/22 00:54:19;;;;;;;1.55;1.40;;;;;;;21.56;66.21;100993.03;9906064;29;20213;-80
2022/07/22 00:59:22;;;;;;;2.90;1.33;;;;;;;21.76;65.31;100983.50;9907079;29;20266;-81
2022/07/22 01:04:24;;;;;;;3.00;1.20;;;;;;;21.73;65.65;100981.38;9920000;29;20672;-80
2022/07/22 01:09:27;;;;;;;2.25;1.15;;;;;;;21.14;67.39;100987.69;9894236;30;20684;-80
2022/07/22 01:14:29;;;;;;;3.87;1.00;;;;;;;21.43;65.95;100989.41;9909569;29;20554;-81
2022/07/22 01:19:31;;;;;;;2.90;1.43;;;;;;;20.74;67.98;100993.28;9906400;30;20229;-81
2022/07/22 01:24:34;;;;;;;6.00;1.30;;;;;;;21.39;65.66;100987.66;9876400;30;20294;-81
2022/07/22 01:29:37;;;;;;;2.30;1.10;;;;;;;20.87;66.94;100994.13;9906621;30;20687;-81
2022/07/22 01:34:39;;;;;;;2.47;1.40;;;;;;;20.45;69.67;100999.97;9905808;29;20261;-81
2022/07/22 01:39:41;;;;;;;1.80;1.50;;;;;;;21.18;66.15;100997.16;9905598;30;20271;-80
2022/07/22 01:44:45;;;;;;;3.63;1.43;;;;;;;20.73;66.54;101005.00;9885553;30;20209;-81
2022/07/22 01:49:47;;;;;;;3.72;2.10;;;;;;;20.74;66.84;100998.13;9885144;30;20260;-81
2022/07/22 01:54:52;;;;;;;4.82;2.53;;;;;;;20.35;68.84;101006.13;9902646;30;20229;-79
2022/07/22 01:59:54;;;;;;;3.83;2.80;;;;;;;19.97;70.72;101011.22;9905685;30;20245;-79
2022/07/22 02:04:57;;;;;;;3.67;2.92;;;;;;;21.19;66.06;100989.44;9896083;30;20231;-80
2022/07/22 02:10:01;;;;;;;5.68;2.33;;;;;;;20.60;66.90;100992.81;9919197;29;20684;-80
2022/07/22 02:15:05;;;;;;;3.17;2.37;;;;;;;21.13;66.43;100991.72;9911779;30;20210;-82
2022/07/22 02:20:07;;;;;;;3.37;2.23;;;;;;;21.15;65.31;100995.00;9896153;30;20231;-80
2022/07/22 02:25:10;;;;;;;3.73;2.67;;;;;;;21.19;66.97;100998.81;9920206;29;20213;-81
2022/07/22 02:30:12;;;;;;;6.45;2.60;;;;;;;21.46;64.58;100993.56;9908587;29;20241;-81
2022/07/22 02:35:15;;;;;;;4.38;3.63;;;;;;;21.02;65.10;100996.22;9903816;30;20262;-80
2022/07/22 02:40:17;;;;;;;4.30;3.00;;;;;;;21.64;63.95;100992.09;9897670;30;20241;-81
2022/07/22 02:45:20;;;;;;;4.15;2.70;;;;;;;21.09;64.77;100990.75;9886100;30;20258;-79
2022/07/22 02:50:22;;;;;;;8.63;2.50;;;;;;;21.48;64.44;100982.66;9920740;29;20243;-81
2022/07/22 02:55:25;;;;;;;5.38;3.03;;;;;;;21.11;65.38;100987.56;9914488;29;20258;-79
2022/07/22 03:00:29;;;;;;;6.27;3.60;;;;;;;20.84;65.95;100983.44;9895205;30;20205;-81
2022/07/22 03:05:32;;;;;;;7.47;4.60;;;;;;;20.87;66.43;100979.91;9905314;30;20613;-80
2022/07/22 03:10:51;;;;;;;6.90;4.47;;;;;;;21.59;64.00;100986.63;9898220;30;20700;-81
2022/07/22 03:15:55;;;;;;;9.70;5.97;;;;;;;20.69;67.02;100996.34;9873544;29;20210;-82
2022/07/22 03:20:57;;;;;;;8.10;5.97;;;;;;;21.58;64.37;100993.53;9903289;29;20279;-80
2022/07/22 03:25:59;;;;;;;7.60;5.43;;;;;;;21.32;64.55;101004.50;9901748;30;20822;-80
2022/07/22 03:31:04;;;;;;;10.70;5.25;;;;;;;21.26;64.52;100994.56;9902704;29;20276;-80
2022/07/22 03:36:06;;;;;;;11.07;6.10;;;;;;;20.46;66.44;101000.81;9872774;30;20217;-79
2022/07/22 03:41:08;;;;;;;9.27;6.63;;;;;;;20.17;69.02;101008.31;9898907;30;20784;-80
2022/07/22 03:46:11;;;;;;;9.53;4.83;;;;;;;20.58;65.59;101014.22;9858419;30;20230;-80
2022/07/22 03:51:14;;;;;;;6.75;4.65;;;;;;;20.04;68.42;101014.31;9888235;30;20249;-81
2022/07/22 03:56:17;;;;;;;8.63;4.68;;;;;;;20.99;64.61;101001.81;9903614;30;20201;-80
2022/07/22 04:01:20;;;;;;;7.90;5.03;;;;;;;21.31;63.33;101008.53;9902792;30;20205;-80
2022/07/22 04:06:23;;;;;;;8.73;4.00;;;;;;;20.42;64.79;101006.34;9902690;30;20351;-79
2022/07/22 04:11:33;;;;;;;8.13;4.43;;;;;;;20.75;63.50;100997.78;9894876;29;20257;-79
2022/07/22 04:16:36;;;;;;;16.58;6.22;;;;;;;21.53;61.72;100988.09;9881061;29;20294;-81
2022/07/22 04:21:43;;;;;;;11.80;4.60;;;;;;;20.83;63.15;101005.34;9885656;30;20197;-82
2022/07/22 04:26:46;;;;;;;11.73;4.23;;;;;;;21.32;61.01;101001.66;9902827;29;20376;-81
2022/07/22 04:31:49;;;;;;;16.87;4.50;;;;;;;20.92;62.25;101002.38;9877410;29;20261;-80
2022/07/22 04:36:54;;;;;;;8.33;3.90;;;;;;;20.73;62.91;101005.00;9922620;29;20236;-81
2022/07/22 04:41:57;;;;;;;5.80;2.20;;;;;;;19.87;64.03;101000.28;9905358;29;20226;-79
2022/07/22 04:47:01;;;;;;;12.30;4.00;;;;;;;21.00;60.69;101004.28;9909925;29;20246;-79
2022/07/22 04:52:10;;;;;;;12.37;4.40;;;;;;;20.52;63.02;101005.09;9910186;29;20256;-79
2022/07/22 04:57:20;;;;;;;13.10;3.30;;;;;;;21.07;60.97;101004.50;9908555;30;20209;-83
2022/07/22 05:02:24;;;;;;;4.77;2.40;;;;;;;21.29;59.77;100996.69;9909027;30;20476;-80
2022/07/22 05:07:27;;;;;;;5.65;2.22;;;;;;;20.90;61.88;101004.75;9894063;30;20189;-79
2022/07/22 05:12:29;;;;;;;9.80;2.90;;;;;;;21.10;60.20;100997.28;9908992;30;20249;-79
2022/07/22 05:17:31;;;;;;;7.43;2.50;;;;;;;21.32;59.51;101002.47;9893501;30;20233;-79
2022/07/22 05:22:50;;;;;;;5.30;3.43;;;;;;;21.56;59.75;100993.03;9909937;29;20189;-79
2022/07/22 05:27:57;;;;;;;9.50;4.65;;;;;;;20.90;62.16;101003.91;9916383;29;20741;-78
2022/07/22 05:33:08;;;;;;;6.28;3.90;;;;;;;20.58;62.59;101009.38;9898149;29;20272;-79
2022/07/22 05:38:33;;;;;;;5.25;3.63;;;;;;;20.85;62.99;101007.84;9872991;29;20244;-79
2022/07/22 05:43:36;;;;;;;10.30;3.93;;;;;;;20.63;64.01;101017.66;9885463;29;20620;-80
2022/07/22 05:48:40;;;;;;;12.07;4.82;;;;;;;20.50;63.90;101019.66;9888864;30;20834;-82
2022/07/22 05:53:43;;;;;;;8.20;4.45;;;;;;;20.34;65.09;101032.03;9875633;30;20659;-81
2022/07/22 05:58:47;;;;;;;6.53;3.37;;;;;;;20.20;64.23;101023.81;9888562;29;20241;-81
2022/07/22 06:03:50;;;;;;;9.53;3.80;;;;;;;20.24;64.34;101021.91;9915703;29;20568;-81
2022/07/22 06:08:52;;;;;;;8.47;3.10;;;;;;;20.29;63.17;101023.72;9890126;30;20232;-82
2022/07/22 06:13:57;;;;;;;6.53;3.30;;;;;;;21.60;58.48;101013.91;9890586;30;20288;-82
2022/07/22 06:18:59;;;;;;;6.77;2.47;;;;;;;21.89;57.24;101007.88;9887448;30;20294;-83
2022/07/22 06:24:03;;;;;;;5.17;2.50;;;;;;;20.19;61.57;101013.66;9887049;30;20288;-83
2022/07/22 06:29:05;;;;;;;10.37;3.07;;;;;;;21.43;59.36;101014.19;9917927;29;20704;-81
2022/07/22 06:34:08;;;;;;;6.80;2.70;;;;;;;21.50;58.53;101009.56;9882418;30;20337;-82
2022/07/22 06:39:39;;;;;;;5.80;2.60;;;;;;;20.96;60.38;101014.72;9895142;30;20567;-81
2022/07/22 06:44:48;;;;;;;7.40;2.58;;;;;;;21.24;59.34;101022.53;9899931;30;20224;-82
2022/07/22 06:50:10;;;;;;;5.73;2.83;;;;;;;21.57;58.50;101017.47;9888761;29;20562;-82
2022/07/22 06:55:15;;;;;;;7.47;2.83;;;;;;;21.66;57.24;101009.63;9867817;30;20290;-82
2022/07/22 07:00:27;;;;;;;6.37;2.07;;;;;;;21.53;57.56;101025.09;9884523;30;20337;-81
2022/07/22 07:05:48;;;;;;;7.28;2.50;;;;;;;21.79;57.34;101016.94;9900730;30;20298;-83
2022/07/22 07:10:52;;;;;;;7.70;2.45;;;;;;;21.96;56.78;101001.56;9883077;29;20233;-85
2022/07/22 07:15:54;;;;;;;6.70;2.43;;;;;;;21.83;56.54;101005.63;9917175;29;20263;-84
2022/07/22 07:20:57;;;;;;;7.50;2.60;;;;;;;22.02;55.78;101005.00;9900910;29;20225;-84
2022/07/22 07:26:00;;;;;;;6.03;2.00;;;;;;;22.21;55.51;100996.56;9900673;30;20688;-84
2022/07/22 07:31:04;;;;;;;5.13;2.23;;;;;;;21.95;54.19;100999.09;9877478;29;20265;-84
2022/07/22 07:36:08;;;;;;;7.43;2.17;;;;;;;21.51;56.68;100999.00;9893911;29;20303;-84
2022/07/22 07:41:16;;;;;;;5.25;2.10;;;;;;;22.42;54.77;101002.88;9884927;29;20240;-85
2022/07/22 07:46:22;;;;;;;3.05;1.20;;;;;;;22.09;51.94;100994.63;9848751;30;20306;-83
2022/07/22 07:51:26;;;;;;;5.57;0.98;;;;;;;22.73;47.86;100990.66;9885306;29;20247;-86
2022/07/22 07:56:29;;;;;;;7.50;1.40;;;;;;;22.33;49.17;100996.50;9907857;29;20275;-82
2022/07/22 08:01:31;;;;;;;2.58;0.88;;;;;;;23.06;48.86;100984.56;9904086;29;20303;-85
2022/07/22 08:14:43;;;;;;;4.17;1.10;;;;;;;22.53;50.23;100995.44;9855178;29;20256;-84
2022/07/22 08:20:05;;;;;;;1.75;1.00;;;;;;;23.27;48.19;100985.03;9846859;30;20267;-84
2022/07/22 08:25:08;;;;;;;3.70;0.95;;;;;;;23.03;47.45;100991.00;9875723;30;20619;-84
2022/07/22 08:30:11;;;;;;;1.58;0.63;;;;;;;22.22;48.98;100984.00;9908488;29;20599;-83
2022/07/22 08:35:14;;;;;;;1.27;1.05;;;;;;;21.91;50.17;100982.72;9895079;30;20279;-83
2022/07/22 08:40:17;;;;;;;2.60;1.00;;;;;;;22.19;49.92;100991.25;9893942;30;20205;-84
2022/07/22 08:45:21;;;;;;;2.85;0.98;;;;;;;22.37;50.51;100994.59;9906523;30;20282;-83
2022/07/22 08:50:24;;;;;;;1.50;1.10;;;;;;;22.67;48.96;100997.03;9902540;30;20237;-85
2022/07/22 08:55:42;;;;;;;2.78;2.30;;;;;;;22.43;49.28;100984.59;9857868;30;20279;-81
2022/07/22 09:00:45;;;;;;;4.43;3.13;;;;;;;21.95;49.72;101001.94;9884792;30;20247;-82
2022/07/22 09:05:49;;;;;;;4.90;2.33;;;;;;;22.61;47.91;100991.59;9904746;29;20285;-81
2022/07/22 09:10:52;;;;;;;3.83;2.42;;;;;;;21.58;49.87;100999.22;9874147;30;20233;-80
2022/07/22 09:16:47;;;;;;;6.07;2.75;;;;;;;22.99;47.52;101004.34;9906310;29;20587;-81
2022/07/22 09:22:04;;;;;;;4.75;2.75;;;;;;;23.53;47.07;100997.88;9892748;30;20236;-81
2022/07/22 09:27:42;;;;;;;4.35;3.95;;;;;;;21.77;50.56;101007.94;9893957;29;20249;-81
2022/07/22 09:33:03;;;;;;;4.50;4.10;;;;;;;22.69;48.89;101003.19;9889693;30;20264;-83
2022/07/22 09:38:18;;;;;;;6.97;5.00;;;;;;;22.19;50.30;101005.47;9881894;30;20286;-82
2022/07/22 09:43:21;;;;;;;5.50;4.40;;;;;;;22.54;48.97;100999.09;9898134;30;20236;-82
2022/07/22 09:48:24;;;;;;;7.03;5.55;;;;;;;22.40;49.21;100998.72;9883949;30;20193;-79
2022/07/22 09:53:44;;;;;;;7.57;5.00;;;;;;;22.01;49.14;101004.19;9899805;30;20225;-82
2022/07/22 09:58:51;;;;;;;9.25;5.75;;;;;;;23.11;48.61;100998.53;9897182;29;20259;-82
2022/07/22 10:04:00;;;;;;;9.30;7.93;;;;;;;22.50;48.94;101001.84;9898551;30;20540;-82
2022/07/22 10:09:06;;;;;;;10.30;7.45;;;;;;;22.39;48.76;100997.91;9895101;30;20209;-82
2022/07/22 10:14:18;;;;;;;11.45;9.00;;;;;;;22.90;48.15;101003.72;9891414;30;20248;-82
2022/07/22 10:19:26;;;;;;;11.43;9.43;;;;;;;22.89;49.27;100993.50;9906868;29;20255;-82
2022/07/22 10:24:29;;;;;;;9.13;8.23;;;;;;;23.01;47.97;100989.72;9891560;29;20235;-83
2022/07/22 10:29:46;;;;;;;11.83;9.53;;;;;;;22.94;47.66;100994.06;9893053;29;20222;-83
2022/07/22 10:34:59;;;;;;;11.45;9.70;;;;;;;23.15;48.26;100985.19;9909131;29;20576;-82
2022/07/22 10:40:07;;;;;;;13.52;11.30;;;;;;;22.18;48.69;100980.25;9894846;30;20209;-82
2022/07/22 10:45:17;;;;;;;13.10;10.73;;;;;;;23.42;46.86;100968.28;9888103;30;20205;-83
2022/07/22 10:50:38;;;;;;;13.82;11.82;;;;;;;23.47;46.50;100960.25;9896517;30;20263;-83
2022/07/22 10:56:27;;;;;;;12.37;11.07;;;;;;;23.82;45.29;100957.31;9911296;30;20224;-82
2022/07/22 11:01:31;;;;;;;15.02;11.60;;;;;;;23.46;46.83;100944.31;9907142;30;20205;-83
2022/07/22 11:06:34;;;;;;;15.63;12.52;;;;;;;23.94;45.75;100937.19;9893736;30;20611;-84
2022/07/22 11:11:52;;;;;;;14.25;12.52;;;;;;;24.14;45.55;100928.53;9864700;30;20206;-84
2022/07/22 11:16:58;;;;;;;14.30;12.63;;;;;;;24.77;44.86;100926.00;9892389;30;20266;-84
2022/07/22 11:22:04;;;;;;;17.13;13.93;;;;;;;23.71;46.65;100929.75;9889406;30;20274;-83
2022/07/22 11:27:15;;;;;;;15.05;13.15;;;;;;;24.04;44.95;100925.13;9896492;30;20209;-83
2022/07/22 11:32:24;;;;;;;19.77;13.75;;;;;;;22.85;48.06;100946.94;9908584;29;20623;-83
2022/07/22 11:37:31;;;;;;;16.10;12.85;;;;;;;21.85;50.05;100955.69;9909052;30;20504;-83
2022/07/22 11:42:33;;;;;;;16.75;12.75;;;;;;;22.12;50.86;100953.19;9892022;30;20221;-84
2022/07/22 11:47:36;;;;;;;18.02;14.32;;;;;;;22.87;48.42;100938.84;9890343;30;20286;-86
2022/07/22 11:52:38;;;;;;;15.27;13.43;;;;;;;23.29;46.64;100950.47;9864790;30;20266;-84
2022/07/22 11:57:50;;;;;;;19.13;13.85;;;;;;;23.48;46.59;100929.69;9894673;30;20209;-83
2022/07/22 12:02:53;;;;;;;17.73;13.60;;;;;;;23.97;46.46;100930.72;9909642;30;20665;-83
2022/07/22 12:08:00;;;;;;;15.73;13.52;;;;;;;24.26;45.89;100925.53;9888056;30;21426;-83
2022/07/22 12:13:02;;;;;;;13.18;11.75;;;;;;;24.30;44.30;100920.69;9908142;30;20221;-83
2022/07/22 12:18:25;;;;;;;14.52;13.02;;;;;;;23.69;47.28;100924.41;9892569;30;20255;-82
2022/07/22 12:23:28;;;;;;;20.88;14.05;;;;;;;24.18;45.70;100912.31;9903970;30;20262;-84
2022/07/22 12:28:30;;;;;;;17.95;13.43;;;;;;;24.17;44.96;100904.94;9908663;29;20227;-82
2022/07/22 12:33:33;;;;;;;15.23;13.38;;;;;;;24.22;47.74;100901.78;9891756;30;20321;-83
2022/07/22 12:38:36;;;;;;;16.58;12.27;;;;;;;23.69;47.05;100901.56;9922630;29;20235;-82
2022/07/22 12:43:38;;;;;;;16.83;12.68;;;;;;;23.95;45.92;100898.84;9896579;30;20304;-84
2022/07/22 12:48:52;;;;;;;15.23;13.10;;;;;;;24.31;44.45;100890.91;9904386;29;20623;-84
2022/07/22 12:53:54;;;;;;;12.70;11.43;;;;;;;25.47;42.43;100887.34;9929261;29;20313;-83
2022/07/22 12:58:57;;;;;;;13.55;11.05;;;;;;;24.76;44.09;100875.75;9920163;29;20217;-84
2022/07/22 13:04:00;;;;;;;13.85;10.98;;;;;;;23.75;45.31;100882.91;9909545;30;20290;-82
2022/07/22 13:09:03;;;;;;;15.32;11.68;;;;;;;25.31;43.76;100874.06;9927065;29;20213;-82
2022/07/22 13:14:07;;;;;;;15.45;11.27;;;;;;;25.57;42.18;100875.19;9916998;29;20252;-83
2022/07/22 13:19:09;;;;;;;12.13;10.23;;;;;;;26.06;40.78;100866.34;9912334;29;20205;-82
2022/07/22 13:24:12;;;;;;;16.05;10.82;;;;;;;26.39;40.93;100862.56;9911336;29;20202;-83
2022/07/22 13:29:16;;;;;;;15.00;10.93;;;;;;;26.65;40.07;100850.88;9897101;30;20205;-81
2022/07/22 13:34:19;;;;;;;11.90;9.73;;;;;;;26.08;39.33;100850.38;9912875;30;20306;-82
2022/07/22 13:39:22;;;;;;;14.20;9.98;;;;;;;25.55;40.22;100844.09;9894164;29;20627;-82
2022/07/22 13:44:24;;;;;;;13.57;10.68;;;;;;;25.53;40.43;100828.53;9911716;30;20759;-82
2022/07/22 13:49:26;;;;;;;13.05;10.52;;;;;;;25.74;40.00;100828.72;9897195;29;20202;-82
2022/07/22 13:54:34;;;;;;;13.85;11.32;;;;;;;24.82;42.37;100844.75;9934945;29;20256;-82
2022/07/22 13:59:36;;;;;;;14.75;11.23;;;;;;;26.04;40.66;100832.34;9912323;29;20209;-82
2022/07/22 14:04:39;;;;;;;13.75;10.18;;;;;;;26.07;40.22;100843.03;9897827;30;20202;-83
2022/07/22 14:09:41;;;;;;;16.33;11.40;;;;;;;26.10;41.06;100842.22;9880798;30;20273;-82
2022/07/22 14:14:44;;;;;;;18.42;11.45;;;;;;;25.91;40.97;100833.03;9896200;30;20303;-82
2022/07/22 14:19:46;;;;;;;14.23;10.75;;;;;;;25.79;40.67;100842.75;9922133;29;20270;-82
2022/07/22 14:24:51;;;;;;;15.90;11.52;;;;;;;26.08;39.61;100829.53;9910515;29;20201;-82
2022/07/22 14:29:53;;;;;;;12.07;10.80;;;;;;;25.71;40.46;100818.06;9889101;29;20603;-81
2022/07/22 14:34:56;;;;;;;17.02;12.30;;;;;;;25.39;40.71;100815.69;9911896;29;20252;-81
2022/07/22 14:40:01;;;;;;;15.50;11.98;;;;;;;25.55;41.56;100820.38;9896713;30;20205;-81
2022/07/22 14:45:09;;;;;;;16.20;12.45;;;;;;;25.02;43.43;100814.78;9911791;29;20596;-82
2022/07/22 14:50:11;;;;;;;15.82;11.63;;;;;;;25.26;41.79;100820.03;9911041;30;20201;-82
2022/07/22 14:55:13;;;;;;;14.60;12.43;;;;;;;25.74;41.10;100817.28;9896309;30;20221;-82
2022/07/22 15:00:16;;;;;;;17.15;11.77;;;;;;;26.07;40.45;100807.81;9907860;30;20205;-82
2022/07/22 15:05:18;;;;;;;14.25;11.10;;;;;;;26.08;38.32;100804.50;9893593;30;20209;-82
2022/07/22 15:10:20;;;;;;;16.00;11.98;;;;;;;26.36;39.39;100805.97;9910104;30;20208;-83
2022/07/22 15:15:23;;;;;;;13.70;11.95;;;;;;;26.20;39.59;100805.44;9892251;30;20325;-83
2022/07/22 15:20:25;;;;;;;16.23;11.43;;;;;;;26.86;38.82;100787.06;9894776;29;20243;-83
2022/07/22 15:25:28;;;;;;;14.50;11.88;;;;;;;25.86;40.96;100796.97;9947881;29;20193;-80
2022/07/22 15:30:30;;;;;;;13.90;11.55;;;;;;;25.08;40.99;100801.78;9910119;29;20323;-80
2022/07/22 15:35:32;;;;;;;14.60;11.25;;;;;;;26.13;39.12;100789.00;9910946;30;20261;-82
2022/07/22 15:40:35;;;;;;;15.90;12.50;;;;;;;26.40;39.72;100781.03;9915926;29;20209;-80
2022/07/22 15:45:37;;;;;;;13.93;11.23;;;;;;;25.93;40.96;100793.34;9914695;29;20193;-81
2022/07/22 15:50:39;;;;;;;12.95;11.13;;;;;;;25.74;40.73;100788.63;9908086;30;20235;-82
2022/07/22 15:55:42;;;;;;;14.85;12.10;;;;;;;26.01;39.12;100770.06;9894106;30;20321;-83
2022/07/22 16:00:46;;;;;;;14.27;11.07;;;;;;;26.24;38.54;100777.59;9904364;30;20201;-80
2022/07/22 16:05:48;;;;;;;16.38;12.00;;;;;;;26.34;38.99;100774.03;9904830;29;20193;-81
2022/07/22 16:10:51;;;;;;;16.08;12.00;;;;;;;26.32;38.62;100767.84;9905813;30;20205;-82
2022/07/22 16:15:54;;;;;;;17.20;12.68;;;;;;;26.07;40.04;100759.09;9918663;29;20700;-81
2022/07/22 16:20:56;;;;;;;17.27;11.82;;;;;;;25.89;38.98;100758.94;9908452;29;20657;-83
2022/07/22 16:25:58;;;;;;;18.90;12.40;;;;;;;26.12;41.03;100753.78;9917592;30;20246;-80
2022/07/22 16:31:01;;;;;;;15.05;11.18;;;;;;;26.14;38.90;100751.34;9911898;29;20237;-81
2022/07/22 16:36:04;;;;;;;16.05;11.18;;;;;;;26.15;39.41;100724.31;9913038;30;20221;-80
2022/07/22 16:41:06;;;;;;;16.30;11.38;;;;;;;26.27;39.85;100714.56;9914179;30;20209;-81
2022/07/22 16:46:08;;;;;;;12.00;10.68;;;;;;;26.28;39.65;100718.25;9913501;30;20201;-83
2022/07/22 16:51:11;;;;;;;11.43;9.40;;;;;;;25.40;39.87;100725.72;9930400;29;20193;-81
2022/07/22 16:56:21;;;;;;;14.02;9.73;;;;;;;25.56;40.10;100713.19;9907784;29;20629;-81
2022/07/22 17:01:24;;;;;;;13.18;10.13;;;;;;;25.14;40.94;100714.38;9887423;30;20451;-79
2022/07/22 17:06:26;;;;;;;10.77;9.68;;;;;;;25.38;40.64;100724.47;9899415;29;20241;-81
2022/07/22 17:11:28;;;;;;;12.05;8.98;;;;;;;26.10;39.89;100721.81;9897659;29;20233;-82
2022/07/22 17:16:31;;;;;;;11.32;9.25;;;;;;;25.40;40.05;100728.59;9900741;29;20817;-81
2022/07/22 17:21:33;;;;;;;12.82;8.82;;;;;;;25.78;40.42;100726.47;9899073;30;20228;-84
2022/07/22 17:26:36;;;;;;;16.58;9.77;;;;;;;25.22;40.59;100739.00;9902710;29;20233;-82
2022/07/22 17:31:38;;;;;;;12.02;8.77;;;;;;;25.20;40.30;100738.56;9905418;29;20264;-83
2022/07/22 17:36:41;;;;;;;10.77;9.60;;;;;;;25.74;40.39;100731.34;9900865;29;20256;-81
2022/07/22 17:41:43;;;;;;;12.70;9.45;;;;;;;25.60;41.11;100731.22;9893188;30;20289;-82
2022/07/22 17:46:45;;;;;;;13.15;11.13;;;;;;;25.39;40.72;100721.22;9884915;30;20280;-80
2022/07/22 17:51:51;;;;;;;13.02;10.85;;;;;;;25.41;40.96;100712.22;9895171;30;20229;-84
2022/07/22 17:56:58;;;;;;;13.88;11.27;;;;;;;25.39;42.27;100720.38;9870700;29;20253;-83
2022/07/22 18:02:00;;;;;;;12.85;11.05;;;;;;;25.27;42.05;100727.22;9874390;30;20233;-82
2022/07/22 18:07:03;;;;;;;11.15;9.98;;;;;;;25.31;42.54;100728.06;9919734;29;20267;-82
2022/07/22 18:12:06;;;;;;;13.93;10.80;;;;;;;25.41;41.42;100715.91;9914428;29;20619;-81
2022/07/22 18:17:09;;;;;;;13.48;9.63;;;;;;;24.91;43.21;100707.97;9903098;29;20261;-83
2022/07/22 18:22:11;;;;;;;11.05;9.52;;;;;;;25.20;42.44;100712.00;9879993;29;20234;-81
2022/07/22 18:27:13;;;;;;;12.45;10.32;;;;;;;25.24;41.91;100716.56;9877168;29;20225;-84
2022/07/22 18:32:16;;;;;;;13.23;10.93;;;;;;;24.93;43.60;100709.22;9884063;29;20257;-81
2022/07/22 18:37:19;;;;;;;11.23;10.13;;;;;;;25.04;42.45;100712.22;9885806;29;20310;-82
2022/07/22 18:42:21;;;;;;;9.13;8.20;;;;;;;24.86;43.44;100708.31;9882345;30;20282;-80
2022/07/22 18:47:23;;;;;;;10.77;8.30;;;;;;;25.06;42.67;100718.34;9910234;29;20225;-80
2022/07/22 18:52:25;;;;;;;10.13;7.78;;;;;;;24.81;42.65;100714.38;9902173;29;20229;-83
2022/07/22 18:57:29;;;;;;;7.97;6.78;;;;;;;24.76;42.58;100703.28;9901932;29;20298;-84
2022/07/22 19:02:31;;;;;;;9.00;6.95;;;;;;;24.82;43.11;100690.28;9903077;30;20232;-85
2022/07/22 19:07:34;;;;;;;8.50;6.45;;;;;;;24.85;43.00;100695.22;9897584;30;20229;-83
2022/07/22 19:12:36;;;;;;;8.05;6.35;;;;;;;24.73;43.50;100690.59;9869945;30;20234;-84
2022/07/22 19:17:39;;;;;;;8.57;6.18;;;;;;;24.80;43.82;100687.81;9857973;30;20257;-85
2022/07/22 19:22:43;;;;;;;9.18;6.22;;;;;;;24.60;43.68;100694.94;9888582;29;20971;-84
2022/07/22 19:27:46;;;;;;;11.05;6.50;;;;;;;24.68;43.68;100706.06;9873597;30;20536;-83
2022/07/22 19:32:49;;;;;;;7.40;6.55;;;;;;;24.47;44.57;100697.19;9868327;29;20330;-83
2022/07/22 19:37:51;;;;;;;8.93;6.25;;;;;;;24.43;45.01;100702.00;9872222;29;20249;-80
2022/07/22 19:42:54;;;;;;;8.05;5.28;;;;;;;24.39;45.55;100698.31;9873014;29;20621;-83
2022/07/22 19:47:57;;;;;;;6.95;5.40;;;;;;;23.95;45.73;100709.47;9850729;30;20225;-83
2022/07/22 19:53:00;;;;;;;11.35;6.88;;;;;;;23.69;47.26;100702.50;9884684;29;20635;-81
2022/07/22 19:58:03;;;;;;;12.77;8.90;;;;;;;24.04;46.34;100693.69;9846269;30;20261;-80
2022/07/22 20:03:05;;;;;;;16.38;10.15;;;;;;;24.13;46.17;100693.44;9884129;29;20237;-80
2022/07/22 20:08:07;;;;;;;15.57;11.15;;;;;;;24.03;46.41;100694.91;9876963;29;20292;-80
2022/07/22 20:13:10;;;;;;;15.97;11.50;;;;;;;24.04;46.15;100693.69;9877000;30;20275;-80
2022/07/22 20:18:12;;;;;;;16.10;11.88;;;;;;;23.72;47.24;100706.63;9859512;30;20249;-79
2022/07/22 20:23:15;;;;;;;14.10;11.10;;;;;;;23.67;47.60;100693.50;9878220;30;20296;-82
2022/07/22 20:28:17;;;;;;;13.25;10.73;;;;;;;23.68;47.55;100692.28;9863925;29;20544;-84
2022/07/22 20:33:20;;;;;;;15.30;11.10;;;;;;;23.45;48.19;100691.50;9868499;30;20249;-81
2022/07/22 20:38:22;;;;;;;18.45;12.20;;;;;;;23.37;48.47;100700.28;9882151;30;20299;-81
2022/07/22 20:43:24;;;;;;;14.73;11.48;;;;;;;23.45;48.05;100702.91;9870957;29;20628;-83
2022/07/22 20:48:27;;;;;;;15.70;11.73;;;;;;;22.96;49.51;100703.59;9868273;29;20226;-86
2022/07/22 20:53:29;;;;;;;15.35;11.80;;;;;;;23.23;48.84;100684.53;9872348;30;20283;-85
2022/07/22 20:58:32;;;;;;;14.38;11.30;;;;;;;23.37;48.50;100697.44;9890734;29;20575;-86
2022/07/22 21:03:35;;;;;;;17.25;11.82;;;;;;;23.37;49.29;100686.03;9899181;30;20233;-84
2022/07/22 21:08:38;;;;;;;17.83;12.52;;;;;;;23.19;50.21;100697.09;9906540;29;20507;-84
2022/07/22 21:13:41;;;;;;;17.10;11.77;;;;;;;23.21;50.58;100704.06;9914998;29;20679;-84
2022/07/22 21:18:43;;;;;;;19.70;12.52;;;;;;;23.03;51.29;100702.06;9880278;30;20257;-82
2022/07/22 21:23:45;;;;;;;17.60;11.82;;;;;;;23.22;50.32;100700.03;9920212;29;20676;-79
2022/07/22 21:28:48;;;;;;;15.48;12.15;;;;;;;23.07;50.38;100692.41;9896448;29;20263;-83
2022/07/22 21:33:50;;;;;;;16.10;12.35;;;;;;;23.19;50.09;100694.25;9888874;29;20330;-81
2022/07/22 21:38:53;;;;;;;20.05;13.60;;;;;;;22.73;52.10;100704.72;9886465;29;20306;-84
2022/07/22 21:43:56;;;;;;;16.50;12.32;;;;;;;22.80;51.47;100713.44;9873153;30;20234;-80
2022/07/22 21:48:59;;;;;;;15.05;11.25;;;;;;;23.24;50.36;100709.00;9891067;29;20286;-78
2022/07/22 21:54:01;;;;;;;14.98;10.02;;;;;;;23.03;51.01;100714.31;9879676;29;20274;-80
2022/07/22 21:59:04;;;;;;;14.13;9.23;;;;;;;23.29;50.90;100705.88;9919589;29;20295;-81
2022/07/22 22:04:06;;;;;;;14.23;8.45;;;;;;;23.21;50.77;100709.78;9897011;30;20629;-81
2022/07/22 22:09:09;;;;;;;12.80;7.65;;;;;;;23.07;50.72;100726.63;9904411;30;20259;-81
2022/07/22 22:14:13;;;;;;;10.97;7.27;;;;;;;23.03;51.46;100730.59;9905150;30;20293;-83
2022/07/22 22:19:17;;;;;;;11.68;5.85;;;;;;;23.46;49.38;100720.84;9918625;29;20252;-81
2022/07/22 22:24:19;;;;;;;12.27;5.65;;;;;;;23.09;50.47;100729.09;9905336;30;20245;-80
2022/07/22 22:29:22;;;;;;;6.82;5.22;;;;;;;22.78;51.43;100725.22;9886479;29;20233;-79
2022/07/22 22:34:24;;;;;;;8.65;5.35;;;;;;;23.25;50.30;100722.06;9885811;29;20264;-81
2022/07/22 22:39:27;;;;;;;13.02;6.15;;;;;;;22.97;51.55;100728.03;9881708;30;20263;-81
2022/07/22 22:44:31;;;;;;;13.15;6.57;;;;;;;22.86;50.73;100720.47;9909346;29;20233;-79
2022/07/22 22:49:33;;;;;;;7.97;5.70;;;;;;;23.18;50.11;100727.66;9903561;30;20229;-81
2022/07/22 22:54:36;;;;;;;9.05;5.10;;;;;;;22.91;49.88;100731.59;9900070;30;20228;-79
2022/07/22 22:59:38;;;;;;;11.10;5.80;;;;;;;22.79;51.57;100731.75;9903668;30;20655;-80
2022/07/22 23:04:40;;;;;;;6.70;4.28;;;;;;;22.93;51.28;100734.91;9909817;29;20732;-78
2022/07/22 23:09:42;;;;;;;6.37;4.40;;;;;;;21.46;54.32;100754.56;9887256;30;20270;-81
2022/07/22 23:14:45;;;;;;;8.48;5.00;;;;;;;22.23;52.95;100749.19;9909880;29;20237;-78
2022/07/22 23:19:47;;;;;;;6.13;4.47;;;;;;;21.91;54.56;100760.63;9886262;30;20265;-78
2022/07/22 23:24:50;;;;;;;6.77;4.93;;;;;;;22.41;54.48;100773.25;9894443;30;20540;-79
2022/07/22 23:29:52;;;;;;;8.95;5.50;;;;;;;22.47;58.07;100782.31;9886122;29;20263;-77